createdAt,value
2022-11-12T00:00:39.299Z,4.80
2022-11-12T00:03:06.068Z,4.70
2022-11-12T00:05:32.941Z,4.60
2022-11-12T00:07:59.852Z,4.60
2022-11-12T00:10:26.489Z,4.60
2022-11-12T00:12:53.157Z,4.60
2022-11-12T00:15:19.851Z,4.50
2022-11-12T00:17:46.440Z,4.50
2022-11-12T00:20:13.040Z,4.50
2022-11-12T00:22:39.610Z,4.40
2022-11-12T00:25:06.733Z,4.20
2022-11-12T00:27:33.380Z,4.10
2022-11-12T00:29:59.985Z,4.00
2022-11-12T00:32:26.592Z,4.00
2022-11-12T00:34:53.201Z,4.00
2022-11-12T00:37:20.580Z,4.00
2022-11-12T00:39:47.249Z,4.00
2022-11-12T00:42:13.828Z,4.00
2022-11-12T00:44:40.432Z,3.80
2022-11-12T00:47:10.666Z,3.70
2022-11-12T00:49:37.727Z,3.70
2022-11-12T00:52:04.719Z,3.70
2022-11-12T00:54:31.697Z,3.70
2022-11-12T00:56:58.352Z,3.80
2022-11-12T00:59:24.955Z,4.10
2022-11-12T01:01:51.548Z,4.20
2022-11-12T01:04:18.147Z,4.30
2022-11-12T01:06:44.829Z,4.20
2022-11-12T01:09:11.492Z,4.10
2022-11-12T01:11:38.071Z,3.90
2022-11-12T01:14:07.059Z,3.80
2022-11-12T01:16:38.528Z,3.90
2022-11-12T01:19:07.188Z,3.90
2022-11-12T01:21:33.912Z,3.80
2022-11-12T01:24:00.749Z,3.70
2022-11-12T01:26:30.236Z,3.60
2022-11-12T01:28:57.082Z,3.70
2022-11-12T01:31:28.268Z,3.60
2022-11-12T01:33:56.597Z,3.60
2022-11-12T01:36:23.393Z,3.40
2022-11-12T01:38:50.177Z,3.40
2022-11-12T01:41:22.020Z,3.40
2022-11-12T01:43:48.723Z,3.50
2022-11-12T01:46:22.008Z,3.50
2022-11-12T01:48:52.128Z,3.60
2022-11-12T01:51:20.186Z,3.50
2022-11-12T01:53:47.699Z,3.40
2022-11-12T01:56:14.612Z,3.50
2022-11-12T01:58:41.272Z,3.50
2022-11-12T02:01:07.975Z,3.40
2022-11-12T02:03:34.645Z,3.30
2022-11-12T02:06:03.456Z,3.40
2022-11-12T02:08:30.061Z,3.40
2022-11-12T02:10:56.710Z,3.20
2022-11-12T02:13:41.943Z,3.30
2022-11-12T02:16:08.956Z,3.40
2022-11-12T02:18:35.584Z,3.30
2022-11-12T02:21:07.124Z,2.90
2022-11-12T02:23:33.730Z,3.00
2022-11-12T02:26:00.710Z,3.00
2022-11-12T02:28:28.441Z,3.00
2022-11-12T02:30:55.220Z,3.00
2022-11-12T02:33:21.941Z,3.00
2022-11-12T02:35:48.540Z,3.00
2022-11-12T02:38:15.131Z,3.00
2022-11-12T02:40:41.707Z,3.00
2022-11-12T02:43:08.309Z,2.90
2022-11-12T02:45:34.885Z,2.80
2022-11-12T02:48:01.500Z,3.00
2022-11-12T02:50:28.081Z,3.00
2022-11-12T02:52:54.687Z,2.90
2022-11-12T02:55:21.329Z,3.00
2022-11-12T02:57:47.932Z,3.00
2022-11-12T03:00:14.721Z,2.80
2022-11-12T03:02:58.693Z,2.80
2022-11-12T03:05:26.617Z,2.80
2022-11-12T03:08:00.263Z,2.70
2022-11-12T03:10:27.062Z,2.80
2022-11-12T03:12:54.173Z,2.70
2022-11-12T03:15:20.752Z,2.70
2022-11-12T03:17:47.347Z,2.70
2022-11-12T03:20:14.057Z,2.80
2022-11-12T03:22:40.807Z,2.80
2022-11-12T03:25:07.897Z,2.80
2022-11-12T03:27:34.517Z,2.70
2022-11-12T03:30:01.191Z,2.50
2022-11-12T03:32:27.796Z,2.60
2022-11-12T03:34:55.536Z,2.60
2022-11-12T03:37:22.412Z,2.60
2022-11-12T03:39:49.029Z,2.70
2022-11-12T03:42:15.685Z,2.60
2022-11-12T03:44:42.280Z,2.60
2022-11-12T03:47:08.871Z,2.60
2022-11-12T03:49:35.457Z,2.60
2022-11-12T03:52:02.057Z,2.60
2022-11-12T03:54:28.691Z,2.60
2022-11-12T03:56:55.303Z,2.60
2022-11-12T03:59:21.916Z,2.40
2022-11-12T04:01:48.523Z,2.30
2022-11-12T04:04:15.135Z,2.40
2022-11-12T04:07:00.413Z,2.40
2022-11-12T04:09:27.028Z,2.40
2022-11-12T04:11:53.633Z,2.40
2022-11-12T04:14:20.268Z,2.30
2022-11-12T04:17:05.613Z,2.40
2022-11-12T04:19:51.048Z,2.40
2022-11-12T04:22:17.650Z,2.30
2022-11-12T04:25:02.752Z,2.10
2022-11-12T04:27:30.864Z,2.00
2022-11-12T04:30:15.933Z,2.00
2022-11-12T04:32:54.496Z,2.10
2022-11-12T04:35:21.949Z,2.10
2022-11-12T04:37:48.783Z,2.20
2022-11-12T04:40:39.349Z,2.20
2022-11-12T04:43:25.424Z,2.20
2022-11-12T04:45:53.012Z,2.10
2022-11-12T04:48:20.050Z,2.20
2022-11-12T04:50:48.702Z,2.20
2022-11-12T04:53:15.482Z,2.10
2022-11-12T04:55:42.072Z,2.00
2022-11-12T04:58:08.683Z,2.00
2022-11-12T05:00:35.314Z,2.10
2022-11-12T05:03:01.941Z,2.10
2022-11-12T05:05:33.475Z,2.10
2022-11-12T05:08:01.273Z,2.10
2022-11-12T05:10:27.893Z,2.20
2022-11-12T05:12:54.510Z,2.20
2022-11-12T05:15:21.124Z,2.10
2022-11-12T05:17:47.735Z,2.10
2022-11-12T05:20:14.609Z,1.90
2022-11-12T05:22:47.654Z,2.00
2022-11-12T05:25:14.691Z,2.10
2022-11-12T05:27:41.310Z,2.10
2022-11-12T05:30:08.493Z,2.10
2022-11-12T05:32:35.105Z,2.00
2022-11-12T05:35:01.729Z,2.00
2022-11-12T05:37:28.345Z,2.10
2022-11-12T05:39:54.930Z,2.10
2022-11-12T05:42:21.533Z,2.00
2022-11-12T05:44:48.120Z,2.00
2022-11-12T05:47:14.770Z,2.00
2022-11-12T05:49:41.346Z,1.90
2022-11-12T05:52:07.995Z,1.80
2022-11-12T05:54:34.593Z,1.80
2022-11-12T05:57:01.254Z,1.90
2022-11-12T05:59:27.860Z,1.80
2022-11-12T06:01:54.894Z,1.70
2022-11-12T06:04:22.133Z,1.70
2022-11-12T06:06:48.774Z,1.70
2022-11-12T06:09:15.434Z,1.70
2022-11-12T06:11:42.039Z,1.80
2022-11-12T06:14:08.615Z,1.80
2022-11-12T06:16:35.261Z,1.80
2022-11-12T06:19:01.901Z,1.70
2022-11-12T06:21:28.792Z,1.60
2022-11-12T06:23:57.573Z,1.70
2022-11-12T06:26:25.860Z,1.70
2022-11-12T06:28:52.762Z,1.70
2022-11-12T06:31:19.689Z,1.80
2022-11-12T06:33:46.881Z,1.70
2022-11-12T06:36:15.077Z,1.70
2022-11-12T06:38:41.840Z,1.70
2022-11-12T06:41:09.504Z,1.70
2022-11-12T06:43:36.365Z,1.80
2022-11-12T06:46:04.125Z,1.70
2022-11-12T06:48:30.824Z,1.70
2022-11-12T06:50:58.110Z,1.70
2022-11-12T06:53:25.351Z,1.70
2022-11-12T06:55:52.430Z,1.60
2022-11-12T06:58:19.064Z,1.70
2022-11-12T07:00:45.701Z,1.70
2022-11-12T07:03:13.312Z,1.80
2022-11-12T07:05:40.134Z,1.90
2022-11-12T07:08:06.737Z,2.00
2022-11-12T07:10:33.398Z,2.00
2022-11-12T07:12:59.995Z,2.00
2022-11-12T07:15:26.691Z,2.00
2022-11-12T07:17:53.289Z,2.00
2022-11-12T07:20:19.878Z,2.00
2022-11-12T07:22:46.498Z,2.10
2022-11-12T07:25:13.125Z,2.10
2022-11-12T07:27:39.726Z,2.20
2022-11-12T07:30:06.871Z,2.20
2022-11-12T07:32:37.293Z,2.20
2022-11-12T07:35:07.315Z,2.30
2022-11-12T07:37:35.159Z,2.30
2022-11-12T07:40:03.524Z,2.40
2022-11-12T07:42:33.479Z,2.40
2022-11-12T07:45:00.093Z,2.40
2022-11-12T07:47:27.223Z,2.50
2022-11-12T07:49:53.869Z,2.60
2022-11-12T07:52:20.869Z,2.70
2022-11-12T07:54:47.465Z,2.70
2022-11-12T07:57:14.060Z,2.80
2022-11-12T07:59:44.834Z,2.90
2022-11-12T08:02:12.904Z,3.00
2022-11-12T08:04:39.557Z,3.10
2022-11-12T08:07:06.272Z,3.10
2022-11-12T08:09:33.159Z,3.20
2022-11-12T08:11:59.795Z,3.20
2022-11-12T08:14:26.413Z,3.30
2022-11-12T08:16:53.084Z,3.30
2022-11-12T08:19:19.713Z,3.40
2022-11-12T08:21:46.328Z,3.40
2022-11-12T08:24:12.941Z,3.60
2022-11-12T08:26:39.562Z,3.70
2022-11-12T08:29:08.616Z,3.80
2022-11-12T08:31:35.383Z,3.90
2022-11-12T08:34:11.928Z,4.20
2022-11-12T08:36:39.193Z,4.20
2022-11-12T08:39:06.140Z,4.20
2022-11-12T08:41:32.851Z,4.30
2022-11-12T08:44:01.906Z,4.30
2022-11-12T08:46:32.201Z,4.50
2022-11-12T08:48:58.849Z,4.60
2022-11-12T08:51:25.510Z,4.50
2022-11-12T08:53:52.154Z,4.50
2022-11-12T08:56:18.805Z,4.60
2022-11-12T08:58:45.425Z,4.80
2022-11-12T09:01:12.126Z,4.90
2022-11-12T09:03:38.780Z,4.90
2022-11-12T09:06:05.749Z,5.00
2022-11-12T09:08:33.401Z,5.30
2022-11-12T09:11:00.008Z,5.40
2022-11-12T09:13:26.669Z,5.50
2022-11-12T09:15:53.351Z,5.70
2022-11-12T09:18:19.934Z,5.80
2022-11-12T09:20:46.705Z,5.90
2022-11-12T09:23:14.764Z,6.00
2022-11-12T09:25:41.673Z,6.10
2022-11-12T09:28:09.298Z,6.10
2022-11-12T09:30:37.142Z,6.20
2022-11-12T09:33:03.878Z,6.40
2022-11-12T09:35:30.820Z,6.50
2022-11-12T09:37:58.488Z,6.60
2022-11-12T09:40:45.606Z,6.70
2022-11-12T09:43:29.179Z,6.70
2022-11-12T09:46:22.011Z,6.80
2022-11-12T09:48:48.524Z,6.90
2022-11-12T09:51:28.746Z,6.90
2022-11-12T09:53:56.220Z,7.00
2022-11-12T09:56:23.013Z,7.00
2022-11-12T09:58:49.843Z,7.10
2022-11-12T10:01:25.126Z,7.10
2022-11-12T10:04:05.168Z,7.20
2022-11-12T10:06:37.462Z,7.20
2022-11-12T10:09:42.201Z,7.30
2022-11-12T10:12:32.669Z,7.40
2022-11-12T10:15:34.658Z,7.40
2022-11-12T10:18:50.904Z,7.50
2022-11-12T10:21:30.065Z,7.60
2022-11-12T10:23:56.683Z,7.60
2022-11-12T10:26:24.505Z,7.60
2022-11-12T10:29:10.747Z,7.60
2022-11-12T10:31:37.416Z,7.70
2022-11-12T10:34:18.594Z,7.70
2022-11-12T10:36:56.667Z,7.80
2022-11-12T10:39:37.203Z,7.90
2022-11-12T10:42:08.652Z,7.90
2022-11-12T10:44:35.289Z,7.90
2022-11-12T10:47:42.797Z,8.00
2022-11-12T10:50:10.173Z,8.00
2022-11-12T10:52:36.847Z,8.10
2022-11-12T10:55:18.033Z,8.10
2022-11-12T10:57:44.691Z,8.20
2022-11-12T11:00:14.129Z,8.20
2022-11-12T11:02:53.698Z,8.20
2022-11-12T11:05:30.317Z,8.30
2022-11-12T11:07:57.526Z,8.30
2022-11-12T11:10:26.550Z,8.40
2022-11-12T11:13:15.108Z,8.50
2022-11-12T11:15:41.713Z,8.50
2022-11-12T11:18:11.964Z,8.50
2022-11-12T11:20:46.292Z,8.60
2022-11-12T11:23:21.995Z,8.60
2022-11-12T11:25:51.067Z,8.70
2022-11-12T11:28:38.467Z,8.70
2022-11-12T11:31:25.231Z,8.70
2022-11-12T11:34:12.907Z,8.80
2022-11-12T11:36:53.821Z,8.90
2022-11-12T11:39:48.488Z,9.00
2022-11-12T11:42:51.489Z,9.00
2022-11-12T11:45:37.300Z,9.10
2022-11-12T11:48:06.897Z,9.30
2022-11-12T11:50:33.813Z,9.30
2022-11-12T11:53:23.104Z,9.30
2022-11-12T11:56:28.793Z,9.40
2022-11-12T11:59:27.568Z,9.50
2022-11-12T12:02:31.781Z,9.60
2022-11-12T12:05:27.840Z,9.60
2022-11-12T12:08:04.996Z,9.60
2022-11-12T12:11:01.757Z,9.80
2022-11-12T12:13:28.116Z,9.70
2022-11-12T12:16:20.655Z,9.70
2022-11-12T12:19:08.107Z,9.70
2022-11-12T12:21:36.273Z,9.70
2022-11-12T12:24:15.422Z,9.70
2022-11-12T12:27:15.442Z,9.70
2022-11-12T12:30:17.279Z,9.70
2022-11-12T12:32:47.344Z,9.70
2022-11-12T12:35:40.033Z,9.80
2022-11-12T12:38:28.100Z,9.80
2022-11-12T12:41:27.813Z,9.90
2022-11-12T12:44:02.066Z,10.00
2022-11-12T12:46:29.180Z,10.00
2022-11-12T12:48:56.243Z,10.00
2022-11-12T12:51:22.961Z,10.00
2022-11-12T12:53:49.634Z,10.10
2022-11-12T12:56:22.386Z,10.30
2022-11-12T12:58:49.573Z,10.20
2022-11-12T13:01:22.432Z,10.20
2022-11-12T13:03:58.085Z,10.20
2022-11-12T13:06:29.473Z,10.20
2022-11-12T13:09:17.262Z,10.20
2022-11-12T13:12:02.553Z,10.30
2022-11-12T13:14:34.734Z,10.60
2022-11-12T13:17:08.285Z,10.50
2022-11-12T13:19:47.241Z,10.50
2022-11-12T13:22:40.090Z,10.60
2022-11-12T13:25:13.203Z,10.60
2022-11-12T13:27:40.160Z,10.60
2022-11-12T13:30:10.500Z,10.60
2022-11-12T13:32:46.608Z,10.60
2022-11-12T13:35:26.265Z,10.70
2022-11-12T13:38:03.053Z,10.70
2022-11-12T13:40:29.630Z,10.70
2022-11-12T13:42:57.537Z,10.70
2022-11-12T13:45:25.181Z,10.70
2022-11-12T13:47:51.845Z,10.70
2022-11-12T13:50:20.430Z,10.70
2022-11-12T13:52:47.685Z,10.80
2022-11-12T13:55:19.304Z,10.80
2022-11-12T13:57:50.205Z,10.80
2022-11-12T14:00:16.774Z,10.80
2022-11-12T14:02:44.644Z,10.80
2022-11-12T14:05:18.368Z,10.80
2022-11-12T14:08:02.733Z,10.80
2022-11-12T14:10:57.209Z,10.90
2022-11-12T14:13:46.007Z,10.90
2022-11-12T14:16:25.711Z,10.90
2022-11-12T14:19:14.844Z,10.90
2022-11-12T14:21:42.748Z,10.90
2022-11-12T14:24:15.033Z,10.90
2022-11-12T14:26:47.488Z,10.90
2022-11-12T14:29:35.245Z,11.00
2022-11-12T14:32:15.788Z,10.90
2022-11-12T14:41:59.894Z,11.00
2022-11-12T14:51:18.846Z,10.90
2022-11-12T14:54:12.219Z,10.90
2022-11-12T14:56:48.421Z,11.10
2022-11-12T14:59:18.207Z,11.00
2022-11-12T15:05:21.582Z,11.00
2022-11-12T15:14:38.278Z,10.90
2022-11-12T15:28:07.334Z,10.80
2022-11-12T15:38:53.407Z,10.60
2022-11-12T15:42:08.504Z,10.50
2022-11-12T15:44:46.072Z,10.50
2022-11-12T15:47:23.398Z,10.50
2022-11-12T15:50:00.058Z,10.40
2022-11-12T15:52:29.475Z,10.40
2022-11-12T15:54:59.715Z,10.30
2022-11-12T15:57:32.709Z,10.20
2022-11-12T16:00:08.717Z,10.20
2022-11-12T16:02:39.557Z,10.20
2022-11-12T16:05:14.153Z,10.10
2022-11-12T16:07:41.076Z,10.10
2022-11-12T16:10:12.028Z,10.00
2022-11-12T16:12:38.639Z,9.90
2022-11-12T16:15:25.683Z,9.70
2022-11-12T16:17:53.079Z,9.50
2022-11-12T16:20:21.507Z,9.50
2022-11-12T16:22:48.680Z,9.40
2022-11-12T16:25:15.394Z,9.30
2022-11-12T16:27:42.035Z,9.30
2022-11-12T16:30:16.220Z,9.20
2022-11-12T16:32:42.864Z,9.10
2022-11-12T16:35:09.544Z,9.10
2022-11-12T16:37:38.346Z,9.00
2022-11-12T16:40:11.803Z,8.90
2022-11-12T16:42:45.367Z,8.90
2022-11-12T16:45:22.753Z,8.80
2022-11-12T16:47:50.897Z,8.80
2022-11-12T16:50:18.953Z,8.70
2022-11-12T16:52:45.556Z,8.70
2022-11-12T16:55:12.257Z,8.60
2022-11-12T16:57:40.151Z,8.50
2022-11-12T17:00:07.595Z,8.50
2022-11-12T17:02:36.940Z,8.40
2022-11-12T17:05:21.597Z,8.40
2022-11-12T17:07:48.689Z,8.40
2022-11-12T17:10:16.272Z,8.50
2022-11-12T17:12:43.199Z,8.40
2022-11-12T17:15:10.168Z,8.50
2022-11-12T17:17:36.763Z,8.50
2022-11-12T17:20:03.610Z,8.50
2022-11-12T17:22:31.119Z,8.50
2022-11-12T17:24:57.711Z,8.40
2022-11-12T17:27:24.365Z,8.20
2022-11-12T17:29:50.945Z,8.20
2022-11-12T17:32:17.541Z,8.20
2022-11-12T17:34:44.209Z,8.10
2022-11-12T17:37:10.817Z,8.10
2022-11-12T17:39:37.404Z,8.10
2022-11-12T17:42:04.214Z,8.00
2022-11-12T17:44:30.845Z,7.90
2022-11-12T17:46:57.463Z,7.90
2022-11-12T17:49:24.053Z,7.80
2022-11-12T17:51:50.651Z,7.80
2022-11-12T17:54:17.254Z,7.70
2022-11-12T17:56:43.865Z,7.60
2022-11-12T17:59:10.461Z,7.60
2022-11-12T18:01:37.888Z,7.50
2022-11-12T18:04:04.696Z,7.50
2022-11-12T18:06:34.533Z,7.60
2022-11-12T18:09:03.162Z,7.60
2022-11-12T18:11:30.253Z,7.60
2022-11-12T18:13:56.914Z,7.40
2022-11-12T18:16:25.371Z,7.40
2022-11-12T18:18:54.427Z,7.40
2022-11-12T18:21:21.173Z,7.30
2022-11-12T18:23:47.796Z,7.30
2022-11-12T18:26:15.212Z,7.40
2022-11-12T18:28:42.451Z,7.40
2022-11-12T18:31:10.260Z,7.40
2022-11-12T18:33:37.527Z,7.40
2022-11-12T18:36:04.744Z,7.30
2022-11-12T18:38:35.014Z,7.30
2022-11-12T18:41:06.177Z,7.30
2022-11-12T18:43:32.991Z,7.30
2022-11-12T18:46:00.335Z,7.30
2022-11-12T18:48:30.877Z,7.20
2022-11-12T18:51:01.896Z,7.20
2022-11-12T18:53:29.604Z,7.10
2022-11-12T18:55:58.844Z,7.10
2022-11-12T18:58:29.411Z,7.10
2022-11-12T19:01:26.985Z,7.00
2022-11-12T19:03:54.740Z,7.10
2022-11-12T19:06:21.370Z,7.00
2022-11-12T19:08:48.025Z,6.90
2022-11-12T19:11:15.458Z,6.90
2022-11-12T19:13:42.307Z,6.80
2022-11-12T19:16:14.157Z,6.90
2022-11-12T19:18:41.337Z,6.80
2022-11-12T19:21:12.679Z,6.80
2022-11-12T19:23:39.429Z,6.80
2022-11-12T19:26:07.132Z,6.80
2022-11-12T19:28:34.797Z,6.80
2022-11-12T19:31:09.112Z,6.80
2022-11-12T19:33:35.744Z,6.80
2022-11-12T19:36:06.917Z,6.60
2022-11-12T19:38:33.650Z,6.50
2022-11-12T19:41:07.044Z,6.40
2022-11-12T19:43:33.857Z,6.40
2022-11-12T19:46:00.536Z,6.40
2022-11-12T19:48:27.494Z,6.40
2022-11-12T19:50:54.495Z,6.30
2022-11-12T19:53:21.098Z,6.30
2022-11-12T19:55:47.690Z,6.30
2022-11-12T19:58:14.288Z,6.20
2022-11-12T20:00:40.905Z,6.20
2022-11-12T20:03:07.497Z,6.10
2022-11-12T20:05:34.099Z,6.10
2022-11-12T20:08:02.386Z,6.00
2022-11-12T20:10:34.500Z,6.10
2022-11-12T20:13:03.972Z,6.10
2022-11-12T20:15:33.788Z,5.90
2022-11-12T20:18:05.189Z,5.80
2022-11-12T20:20:34.866Z,5.90
2022-11-12T20:23:05.439Z,5.70
2022-11-12T20:25:33.800Z,5.70
2022-11-12T20:28:07.329Z,5.70
2022-11-12T20:30:36.703Z,5.80
2022-11-12T20:33:04.943Z,5.80
2022-11-12T20:35:36.389Z,5.60
2022-11-12T20:38:05.087Z,5.60
2022-11-12T20:40:33.522Z,5.60
2022-11-12T20:43:02.492Z,5.70
2022-11-12T20:45:31.889Z,5.90
2022-11-12T20:47:58.611Z,5.80
2022-11-12T20:50:25.200Z,5.80
2022-11-12T20:52:51.843Z,5.80
2022-11-12T20:55:18.503Z,5.80
2022-11-12T20:57:45.197Z,5.80
2022-11-12T21:00:17.757Z,5.80
2022-11-12T21:02:46.685Z,5.70
2022-11-12T21:05:13.281Z,5.70
2022-11-12T21:07:39.887Z,5.60
2022-11-12T21:10:06.900Z,5.60
2022-11-12T21:12:33.533Z,5.50
2022-11-12T21:15:00.145Z,5.50
2022-11-12T21:17:26.763Z,5.40
2022-11-12T21:19:53.364Z,5.30
2022-11-12T21:22:19.967Z,5.30
2022-11-12T21:24:46.581Z,5.20
2022-11-12T21:27:13.784Z,5.10
2022-11-12T21:29:40.395Z,5.10
2022-11-12T21:32:07.021Z,5.00
2022-11-12T21:34:33.620Z,4.80
2022-11-12T21:37:00.866Z,4.90
2022-11-12T21:39:27.452Z,4.90
2022-11-12T21:41:54.831Z,4.90
2022-11-12T21:44:21.424Z,4.80
2022-11-12T21:46:48.020Z,4.80
2022-11-12T21:49:14.617Z,4.90
2022-11-12T21:51:41.217Z,4.90
2022-11-12T21:54:07.949Z,4.80
2022-11-12T21:56:34.577Z,4.70
2022-11-12T21:59:01.437Z,4.60
2022-11-12T22:01:29.552Z,4.70
2022-11-12T22:03:56.581Z,4.80
2022-11-12T22:06:25.270Z,4.80
2022-11-12T22:08:52.915Z,4.80
2022-11-12T22:11:19.609Z,4.80
2022-11-12T22:13:46.277Z,4.80
2022-11-12T22:16:17.372Z,4.70
2022-11-12T22:18:45.060Z,4.70
2022-11-12T22:21:13.502Z,4.80
2022-11-12T22:23:40.205Z,4.80
2022-11-12T22:26:24.708Z,4.80
2022-11-12T22:28:54.859Z,4.90
2022-11-12T22:31:23.100Z,4.90
2022-11-12T22:33:49.836Z,4.90
2022-11-12T22:36:21.641Z,4.80
2022-11-12T22:38:49.817Z,4.80
2022-11-12T22:41:21.020Z,4.70
2022-11-12T22:43:51.460Z,4.70
2022-11-12T22:46:22.691Z,4.70
2022-11-12T22:48:49.468Z,4.70
2022-11-12T22:51:17.629Z,4.60
2022-11-12T22:53:44.359Z,4.50
2022-11-12T22:56:13.044Z,4.50
2022-11-12T22:58:40.563Z,4.60
2022-11-12T23:01:08.515Z,4.60
2022-11-12T23:03:35.261Z,4.70
2022-11-12T23:06:03.751Z,4.70
2022-11-12T23:08:30.829Z,4.60
2022-11-12T23:10:57.912Z,4.60
2022-11-12T23:13:25.372Z,4.60
2022-11-12T23:15:51.994Z,4.60
2022-11-12T23:18:18.585Z,4.60
2022-11-12T23:20:45.191Z,4.60
2022-11-12T23:23:11.793Z,4.50
2022-11-12T23:25:38.493Z,4.40
2022-11-12T23:28:07.625Z,4.50
2022-11-12T23:30:35.009Z,4.50
2022-11-12T23:33:01.951Z,4.40
2022-11-12T23:35:29.491Z,4.30
2022-11-12T23:37:56.213Z,4.30
2022-11-12T23:40:26.073Z,4.20
2022-11-12T23:42:56.343Z,4.20
2022-11-12T23:45:22.949Z,4.10
2022-11-12T23:47:49.577Z,4.20
2022-11-12T23:50:16.440Z,4.10
2022-11-12T23:52:43.051Z,4.10
2022-11-12T23:55:09.678Z,4.10
2022-11-12T23:57:36.286Z,4.10
